Time;durP1;ratioP1;P1;durP2;ratioP2;P2;SDS_P1;SDS_P2;PMS_P1;PMS_P2;Temp;Humidity;BMP_temperature;BMP_pressure;BME280_temperature;BME280_humidity;BME280_pressure;Samples;Min_cycle;Max_cycle;Signal;HPM_P1;HPM_P2
2022/08/26 00:01:40;;;;;;;19.20;17.40;;;;;;;;;;5035602;28;24438;-46
2022/08/26 00:04:05;;;;;;;20.90;18.70;;;;;;;;;;5036966;28;24431;-47
2022/08/26 00:06:31;;;;;;;20.53;18.60;;;;;;;;;;5032874;28;24447;-47
2022/08/26 00:08:56;;;;;;;20.00;17.63;;;;;;;;;;5040297;28;25034;-47
2022/08/26 00:11:22;;;;;;;20.50;18.40;;;;;;;;;;5032116;28;24442;-47
2022/08/26 00:13:47;;;;;;;22.20;18.20;;;;;;;;;;5039593;28;24438;-47
2022/08/26 00:16:12;;;;;;;19.57;17.47;;;;;;;;;;5030551;28;24523;-47
2022/08/26 00:18:38;;;;;;;20.57;18.40;;;;;;;;;;5038144;28;24423;-47
2022/08/26 00:21:03;;;;;;;20.80;18.00;;;;;;;;;;5042518;28;24442;-46
2022/08/26 00:23:29;;;;;;;19.92;17.55;;;;;;;;;;5042103;28;24426;-46
2022/08/26 00:25:54;;;;;;;19.83;17.73;;;;;;;;;;5042197;28;24473;-47
2022/08/26 00:28:19;;;;;;;18.50;16.65;;;;;;;;;;5031199;28;24419;-46
2022/08/26 00:30:47;;;;;;;17.90;16.00;;;;;;;;;;5038320;28;24968;-46
2022/08/26 00:33:13;;;;;;;19.80;17.70;;;;;;;;;;5032257;28;24415;-46
2022/08/26 00:35:38;;;;;;;23.48;18.40;;;;;;;;;;5035798;28;24489;-46
2022/08/26 00:38:04;;;;;;;19.80;17.03;;;;;;;;;;5029928;28;25008;-46
2022/08/26 00:40:34;;;;;;;19.57;17.43;;;;;;;;;;5041819;28;24485;-47
2022/08/26 00:42:59;;;;;;;18.13;16.43;;;;;;;;;;5041781;28;24418;-48
2022/08/26 00:45:24;;;;;;;20.77;18.50;;;;;;;;;;5030938;28;24859;-47
2022/08/26 00:47:55;;;;;;;20.33;18.23;;;;;;;;;;5040434;28;24929;-47
2022/08/26 00:50:23;;;;;;;22.85;17.92;;;;;;;;;;5042206;28;24422;-47
2022/08/26 00:52:49;;;;;;;21.00;18.80;;;;;;;;;;5029111;28;24447;-47
2022/08/26 00:55:16;;;;;;;20.47;18.30;;;;;;;;;;5026051;28;24467;-45
2022/08/26 00:57:41;;;;;;;20.75;17.90;;;;;;;;;;5043575;28;24425;-45
2022/08/26 01:00:10;;;;;;;20.03;18.03;;;;;;;;;;5037083;28;24427;-47
2022/08/26 01:02:35;;;;;;;20.83;18.00;;;;;;;;;;5038053;28;24427;-46
2022/08/26 01:05:03;;;;;;;21.10;18.90;;;;;;;;;;5040123;28;24865;-46
2022/08/26 01:07:29;;;;;;;23.17;18.90;;;;;;;;;;5042391;28;24426;-46
2022/08/26 01:09:55;;;;;;;20.23;17.92;;;;;;;;;;5028093;28;24427;-45
2022/08/26 01:12:22;;;;;;;25.60;19.48;;;;;;;;;;5043173;28;24778;-46
2022/08/26 01:14:48;;;;;;;21.67;19.10;;;;;;;;;;5036478;28;24440;-46
2022/08/26 01:17:14;;;;;;;21.20;18.10;;;;;;;;;;5030534;28;24423;-46
2022/08/26 01:19:47;;;;;;;18.92;17.02;;;;;;;;;;5043256;28;24420;-46
2022/08/26 01:22:18;;;;;;;20.88;18.88;;;;;;;;;;5034046;28;25164;-46
2022/08/26 01:24:43;;;;;;;20.33;18.15;;;;;;;;;;5037354;28;24514;-46
2022/08/26 01:27:11;;;;;;;20.88;18.70;;;;;;;;;;5043466;28;24573;-46
2022/08/26 01:29:38;;;;;;;23.58;19.38;;;;;;;;;;5033608;28;25148;-47
2022/08/26 01:32:03;;;;;;;23.83;19.63;;;;;;;;;;5035659;28;24431;-46
2022/08/26 01:34:33;;;;;;;22.13;19.83;;;;;;;;;;5032442;28;26817;-46
2022/08/26 01:37:05;;;;;;;20.60;18.50;;;;;;;;;;5043423;28;24411;-46
2022/08/26 01:39:31;;;;;;;21.67;19.10;;;;;;;;;;5033797;28;24435;-46
2022/08/26 01:41:56;;;;;;;20.80;18.80;;;;;;;;;;5040690;28;24438;-48
2022/08/26 01:44:24;;;;;;;20.30;18.10;;;;;;;;;;5032195;28;24439;-46
2022/08/26 01:46:50;;;;;;;20.45;18.35;;;;;;;;;;5041898;28;24423;-46
2022/08/26 01:49:16;;;;;;;20.50;18.38;;;;;;;;;;5026020;28;24423;-46
2022/08/26 01:51:43;;;;;;;23.05;18.30;;;;;;;;;;5031450;28;24427;-47
2022/08/26 01:54:09;;;;;;;21.10;19.00;;;;;;;;;;5030943;28;24519;-47
2022/08/26 01:56:34;;;;;;;22.17;19.77;;;;;;;;;;5042412;28;24802;-46
2022/08/26 01:59:01;;;;;;;20.60;18.60;;;;;;;;;;5046056;28;24423;-47
2022/08/26 02:01:26;;;;;;;21.70;19.42;;;;;;;;;;5033579;28;24423;-46
2022/08/26 02:04:02;;;;;;;21.60;19.30;;;;;;;;;;5033049;28;24450;-45
2022/08/26 02:06:28;;;;;;;20.58;18.42;;;;;;;;;;5036062;28;24966;-45
2022/08/26 02:08:54;;;;;;;20.37;18.43;;;;;;;;;;5045601;28;24442;-46
2022/08/26 02:11:20;;;;;;;19.48;17.48;;;;;;;;;;5036678;28;24433;-48
2022/08/26 02:13:47;;;;;;;20.43;17.90;;;;;;;;;;5035591;28;24428;-47
2022/08/26 02:16:14;;;;;;;18.70;16.80;;;;;;;;;;5038069;28;24550;-47
2022/08/26 02:18:40;;;;;;;21.30;17.98;;;;;;;;;;5039862;28;24802;-47
2022/08/26 02:21:06;;;;;;;21.90;19.10;;;;;;;;;;5034555;28;24453;-47
2022/08/26 02:23:31;;;;;;;23.08;20.40;;;;;;;;;;5037812;28;24447;-48
2022/08/26 02:26:10;;;;;;;22.17;19.98;;;;;;;;;;5041659;28;25040;-47
2022/08/26 02:29:02;;;;;;;20.80;18.80;;;;;;;;;;5032943;28;24916;-47
2022/08/26 02:31:28;;;;;;;22.90;17.47;;;;;;;;;;5037888;28;26536;-46
2022/08/26 02:33:53;;;;;;;19.80;17.80;;;;;;;;;;5039100;28;24989;-46
2022/08/26 02:36:19;;;;;;;20.85;18.75;;;;;;;;;;5033496;28;24423;-46
2022/08/26 02:38:45;;;;;;;22.60;18.40;;;;;;;;;;5034959;28;24432;-47
2022/08/26 02:41:10;;;;;;;22.50;19.43;;;;;;;;;;5048864;28;24394;-47
2022/08/26 02:43:35;;;;;;;22.83;20.43;;;;;;;;;;5041404;28;24427;-47
2022/08/26 02:46:00;;;;;;;21.43;18.23;;;;;;;;;;5033383;28;24471;-47
2022/08/26 02:48:25;;;;;;;21.85;18.20;;;;;;;;;;5038627;28;24431;-47
2022/08/26 02:50:51;;;;;;;21.67;19.37;;;;;;;;;;5033910;28;24511;-47
2022/08/26 02:53:16;;;;;;;22.20;19.80;;;;;;;;;;5042632;28;24868;-47
2022/08/26 02:55:41;;;;;;;22.87;18.87;;;;;;;;;;5043263;28;24431;-47
2022/08/26 02:58:07;;;;;;;21.38;19.20;;;;;;;;;;5039349;28;24427;-47
2022/08/26 03:00:34;;;;;;;20.80;18.60;;;;;;;;;;5037690;28;24434;-47
2022/08/26 03:02:59;;;;;;;20.70;18.60;;;;;;;;;;5031324;28;24415;-48
2022/08/26 03:05:25;;;;;;;19.75;17.80;;;;;;;;;;5039285;28;24579;-48
2022/08/26 03:07:51;;;;;;;21.20;18.90;;;;;;;;;;5036190;28;24518;-48
2022/08/26 03:10:16;;;;;;;19.63;17.60;;;;;;;;;;5040983;28;24502;-47
2022/08/26 03:12:44;;;;;;;20.47;18.27;;;;;;;;;;5029122;28;24571;-49
2022/08/26 03:15:10;;;;;;;20.10;18.17;;;;;;;;;;5044447;28;24427;-47
2022/08/26 03:17:35;;;;;;;20.23;18.13;;;;;;;;;;5041429;28;24505;-48
2022/08/26 03:20:00;;;;;;;21.15;17.50;;;;;;;;;;5038744;28;24430;-47
2022/08/26 03:22:25;;;;;;;21.07;18.43;;;;;;;;;;5034507;28;24522;-47
2022/08/26 03:24:51;;;;;;;21.83;18.60;;;;;;;;;;5028297;28;24487;-46
2022/08/26 03:27:16;;;;;;;22.63;18.25;;;;;;;;;;5034776;28;24519;-48
2022/08/26 03:32:25;;;;;;;20.88;18.83;;;;;;;;;;5037862;28;24470;-47
2022/08/26 03:34:51;;;;;;;20.65;18.52;;;;;;;;;;5039998;28;24561;-48
2022/08/26 03:37:16;;;;;;;20.65;18.65;;;;;;;;;;5041157;28;24545;-47
2022/08/26 03:39:42;;;;;;;18.77;16.97;;;;;;;;;;5037486;28;24877;-47
2022/08/26 03:42:07;;;;;;;19.87;17.80;;;;;;;;;;5039586;28;24415;-48
2022/08/26 03:44:32;;;;;;;19.97;17.87;;;;;;;;;;5035997;28;24423;-48
2022/08/26 03:46:57;;;;;;;19.95;17.83;;;;;;;;;;5036145;28;24495;-48
2022/08/26 03:49:22;;;;;;;19.50;17.30;;;;;;;;;;5030066;28;24466;-47
2022/08/26 03:51:48;;;;;;;19.73;17.57;;;;;;;;;;5042128;28;24964;-48
2022/08/26 03:54:13;;;;;;;21.03;18.13;;;;;;;;;;5039766;28;24657;-47
2022/08/26 03:56:38;;;;;;;20.47;17.70;;;;;;;;;;5034834;28;24438;-48
2022/08/26 03:59:03;;;;;;;22.23;18.02;;;;;;;;;;5042732;28;24426;-47
2022/08/26 04:01:29;;;;;;;23.60;18.23;;;;;;;;;;5042748;28;24572;-47
2022/08/26 04:03:57;;;;;;;19.67;17.70;;;;;;;;;;5042408;28;25005;-47
2022/08/26 04:06:23;;;;;;;20.05;18.05;;;;;;;;;;5041070;28;25049;-48
2022/08/26 04:08:48;;;;;;;19.40;17.30;;;;;;;;;;5039247;28;24419;-47
2022/08/26 04:11:18;;;;;;;20.80;17.35;;;;;;;;;;5038329;28;24442;-47
2022/08/26 04:13:43;;;;;;;19.33;17.23;;;;;;;;;;5040173;28;24906;-47
2022/08/26 04:16:08;;;;;;;20.03;17.93;;;;;;;;;;5038320;28;24988;-47
2022/08/26 04:18:36;;;;;;;18.15;16.25;;;;;;;;;;5043318;28;24415;-47
2022/08/26 04:21:02;;;;;;;19.90;17.80;;;;;;;;;;5042694;28;24426;-47
2022/08/26 04:23:27;;;;;;;20.58;17.65;;;;;;;;;;5035264;28;24779;-48
2022/08/26 04:25:52;;;;;;;20.58;18.02;;;;;;;;;;5032535;28;24424;-48
2022/08/26 04:28:17;;;;;;;20.00;17.80;;;;;;;;;;5031258;28;24521;-48
2022/08/26 04:30:42;;;;;;;19.70;17.70;;;;;;;;;;5029147;28;24423;-47
2022/08/26 04:33:08;;;;;;;19.70;17.70;;;;;;;;;;5041518;28;24991;-47
2022/08/26 04:35:34;;;;;;;21.00;18.90;;;;;;;;;;5038061;28;24429;-46
2022/08/26 04:37:59;;;;;;;20.60;18.30;;;;;;;;;;5042486;28;24423;-48
2022/08/26 04:40:26;;;;;;;19.67;17.60;;;;;;;;;;5038255;28;25019;-48
2022/08/26 04:42:51;;;;;;;18.90;17.00;;;;;;;;;;5033356;28;24503;-47
2022/08/26 04:45:16;;;;;;;21.57;17.77;;;;;;;;;;5032046;28;24522;-47
2022/08/26 04:47:41;;;;;;;19.67;17.58;;;;;;;;;;5030270;28;24427;-46
2022/08/26 04:50:07;;;;;;;19.85;17.75;;;;;;;;;;5036935;28;24431;-48
2022/08/26 04:52:33;;;;;;;19.77;17.77;;;;;;;;;;5032665;28;24521;-46
2022/08/26 04:54:58;;;;;;;19.10;17.30;;;;;;;;;;5033346;28;24526;-46
2022/08/26 04:57:23;;;;;;;19.85;17.75;;;;;;;;;;5039432;28;24427;-47
2022/08/26 04:59:48;;;;;;;20.52;16.70;;;;;;;;;;5028011;28;24945;-46
2022/08/26 05:02:13;;;;;;;18.63;16.67;;;;;;;;;;5039644;28;24590;-47
2022/08/26 05:04:42;;;;;;;18.23;16.42;;;;;;;;;;5027058;28;24500;-46
2022/08/26 05:07:08;;;;;;;18.90;17.13;;;;;;;;;;5028092;28;24865;-47
2022/08/26 05:09:33;;;;;;;19.52;17.38;;;;;;;;;;5039498;28;24637;-47
2022/08/26 05:11:58;;;;;;;19.57;17.57;;;;;;;;;;5033899;28;24611;-46
2022/08/26 05:14:23;;;;;;;19.17;17.25;;;;;;;;;;5036728;28;24490;-46
2022/08/26 05:16:49;;;;;;;19.37;17.30;;;;;;;;;;5032495;28;24849;-46
2022/08/26 05:19:15;;;;;;;18.90;16.43;;;;;;;;;;5032914;28;24975;-46
2022/08/26 05:21:41;;;;;;;19.63;17.63;;;;;;;;;;5034063;28;24453;-46
2022/08/26 05:24:06;;;;;;;22.50;17.57;;;;;;;;;;5032314;28;24439;-47
2022/08/26 05:26:31;;;;;;;21.52;16.20;;;;;;;;;;5034736;28;24793;-47
2022/08/26 05:28:57;;;;;;;19.93;17.73;;;;;;;;;;5030407;28;24983;-47
2022/08/26 05:31:23;;;;;;;19.00;16.20;;;;;;;;;;5040604;28;24426;-46
2022/08/26 05:33:49;;;;;;;18.77;16.90;;;;;;;;;;5044596;28;24522;-48
2022/08/26 05:36:16;;;;;;;19.02;16.13;;;;;;;;;;5036790;28;24489;-48
2022/08/26 05:38:41;;;;;;;18.30;16.50;;;;;;;;;;5038764;28;24488;-47
2022/08/26 05:41:18;;;;;;;19.30;16.98;;;;;;;;;;5042743;28;24431;-46
2022/08/26 05:43:44;;;;;;;20.73;17.77;;;;;;;;;;5032703;28;24447;-47
2022/08/26 05:46:09;;;;;;;18.48;16.60;;;;;;;;;;5033427;28;25004;-47
2022/08/26 05:48:35;;;;;;;18.43;16.43;;;;;;;;;;5027100;28;24453;-47
2022/08/26 05:51:02;;;;;;;18.93;16.80;;;;;;;;;;5034677;28;24782;-47
2022/08/26 05:53:27;;;;;;;18.07;16.10;;;;;;;;;;5035315;28;24461;-47
2022/08/26 05:55:53;;;;;;;21.17;18.90;;;;;;;;;;5033028;28;25112;-46
2022/08/26 05:58:19;;;;;;;18.60;16.70;;;;;;;;;;5036016;28;24424;-47
2022/08/26 06:00:45;;;;;;;20.20;15.82;;;;;;;;;;5038720;28;24534;-47
2022/08/26 06:03:10;;;;;;;17.65;15.85;;;;;;;;;;5034244;28;25231;-47
2022/08/26 06:05:36;;;;;;;18.33;16.42;;;;;;;;;;5032555;28;24431;-47
2022/08/26 06:08:12;;;;;;;18.27;16.48;;;;;;;;;;5037466;28;24846;-47
2022/08/26 06:10:48;;;;;;;18.40;16.80;;;;;;;;;;5043024;28;24866;-47
2022/08/26 06:13:14;;;;;;;20.80;17.38;;;;;;;;;;5032205;28;25246;-47
2022/08/26 06:15:41;;;;;;;18.20;16.20;;;;;;;;;;5028400;28;24485;-47
2022/08/26 06:18:07;;;;;;;18.98;17.05;;;;;;;;;;5040753;28;24472;-47
2022/08/26 06:20:32;;;;;;;18.88;16.70;;;;;;;;;;5045974;28;24516;-46
2022/08/26 06:25:41;;;;;;;17.70;16.10;;;;;;;;;;5039530;28;24496;-47
2022/08/26 06:28:07;;;;;;;20.00;17.03;;;;;;;;;;5047746;28;24467;-47
2022/08/26 06:30:37;;;;;;;17.87;16.07;;;;;;;;;;5032096;28;24453;-47
2022/08/26 06:33:02;;;;;;;19.35;17.35;;;;;;;;;;5034392;28;25177;-47
2022/08/26 06:35:27;;;;;;;20.40;17.20;;;;;;;;;;5028676;28;24418;-47
2022/08/26 06:37:53;;;;;;;17.75;16.10;;;;;;;;;;5027112;28;24809;-46
2022/08/26 06:40:19;;;;;;;19.23;16.55;;;;;;;;;;5028373;28;24387;-48
2022/08/26 06:42:44;;;;;;;18.45;16.40;;;;;;;;;;5032828;28;24427;-47
2022/08/26 06:45:09;;;;;;;18.27;15.23;;;;;;;;;;5048139;28;24741;-47
2022/08/26 06:47:35;;;;;;;18.58;15.73;;;;;;;;;;5048504;28;24383;-47
2022/08/26 06:50:00;;;;;;;16.53;15.03;;;;;;;;;;5047982;28;24419;-48
2022/08/26 06:52:26;;;;;;;17.00;15.20;;;;;;;;;;5046922;28;25241;-47
2022/08/26 06:54:51;;;;;;;16.40;14.80;;;;;;;;;;5048188;28;24468;-47
2022/08/26 06:57:16;;;;;;;18.38;14.70;;;;;;;;;;5048425;28;24478;-46
2022/08/26 06:59:41;;;;;;;16.70;14.80;;;;;;;;;;5048188;28;24392;-44
2022/08/26 07:02:06;;;;;;;15.65;14.00;;;;;;;;;;5045427;28;25047;-45
2022/08/26 07:04:32;;;;;;;17.63;15.10;;;;;;;;;;5048180;28;24521;-45
2022/08/26 07:06:57;;;;;;;15.90;14.20;;;;;;;;;;5048069;28;24422;-45
2022/08/26 07:09:24;;;;;;;16.97;15.37;;;;;;;;;;5048255;28;24987;-45
2022/08/26 07:11:50;;;;;;;16.70;15.00;;;;;;;;;;5046452;28;24415;-46
2022/08/26 07:14:16;;;;;;;15.23;13.63;;;;;;;;;;5048046;28;24750;-47
2022/08/26 07:16:41;;;;;;;19.40;16.25;;;;;;;;;;5047727;28;24546;-46
2022/08/26 07:19:07;;;;;;;17.10;14.00;;;;;;;;;;5047910;28;24494;-46
2022/08/26 07:21:32;;;;;;;21.20;14.55;;;;;;;;;;5047902;28;24386;-45
2022/08/26 07:23:58;;;;;;;15.97;14.27;;;;;;;;;;5030596;28;24419;-46
2022/08/26 07:26:24;;;;;;;15.30;13.80;;;;;;;;;;5027756;28;25047;-47
2022/08/26 07:28:51;;;;;;;14.02;12.73;;;;;;;;;;5027777;28;24936;-47
2022/08/26 07:31:17;;;;;;;14.60;13.20;;;;;;;;;;5027589;28;24469;-47
2022/08/26 07:33:42;;;;;;;15.90;13.07;;;;;;;;;;5027407;28;24956;-48
2022/08/26 07:36:08;;;;;;;15.13;13.63;;;;;;;;;;5027538;28;24428;-47
2022/08/26 07:38:33;;;;;;;16.60;14.90;;;;;;;;;;5027465;28;24434;-47
2022/08/26 07:40:59;;;;;;;15.00;13.48;;;;;;;;;;5029018;28;24442;-46
2022/08/26 07:43:24;;;;;;;15.30;13.70;;;;;;;;;;5027354;28;24458;-47
2022/08/26 07:45:49;;;;;;;15.75;14.35;;;;;;;;;;5027403;28;24988;-45
2022/08/26 07:48:15;;;;;;;15.98;14.38;;;;;;;;;;5031909;28;24407;-46
2022/08/26 07:50:40;;;;;;;17.00;13.93;;;;;;;;;;5042601;28;24511;-47
2022/08/26 07:53:05;;;;;;;19.13;14.73;;;;;;;;;;5040279;28;24430;-46
2022/08/26 07:55:30;;;;;;;18.63;15.00;;;;;;;;;;5046508;28;24420;-46
2022/08/26 07:57:56;;;;;;;18.75;14.10;;;;;;;;;;5046750;28;24810;-46
2022/08/26 08:00:22;;;;;;;15.13;13.33;;;;;;;;;;5037984;28;24778;-47
2022/08/26 08:02:47;;;;;;;14.90;13.40;;;;;;;;;;5026724;28;24406;-48
2022/08/26 08:05:14;;;;;;;18.35;14.68;;;;;;;;;;5027224;28;24404;-47
2022/08/26 08:07:39;;;;;;;21.75;15.43;;;;;;;;;;5026903;28;24750;-47
2022/08/26 08:10:05;;;;;;;14.60;13.10;;;;;;;;;;5028004;28;24890;-47
2022/08/26 08:12:30;;;;;;;20.30;13.97;;;;;;;;;;5026879;28;24504;-48
2022/08/26 08:14:55;;;;;;;15.50;13.27;;;;;;;;;;5026568;28;24416;-47
2022/08/26 08:17:21;;;;;;;14.57;13.00;;;;;;;;;;5026921;28;24815;-47
2022/08/26 08:19:46;;;;;;;17.93;13.70;;;;;;;;;;5033185;28;24455;-46
2022/08/26 08:22:11;;;;;;;15.20;13.60;;;;;;;;;;5046565;28;24469;-46
2022/08/26 08:24:36;;;;;;;16.30;13.47;;;;;;;;;;5046699;28;24379;-46
2022/08/26 08:27:02;;;;;;;18.00;14.20;;;;;;;;;;5046673;28;24426;-45
2022/08/26 08:29:30;;;;;;;17.80;15.20;;;;;;;;;;5045562;28;24526;-47
2022/08/26 08:31:56;;;;;;;15.50;13.45;;;;;;;;;;5024670;28;24420;-46
2022/08/26 08:34:21;;;;;;;15.35;13.60;;;;;;;;;;5026426;28;24439;-46
2022/08/26 08:36:46;;;;;;;16.27;12.60;;;;;;;;;;5026570;28;24420;-46
2022/08/26 08:39:12;;;;;;;14.07;12.35;;;;;;;;;;5026703;28;24392;-46
2022/08/26 08:41:37;;;;;;;13.10;11.82;;;;;;;;;;5040662;28;24491;-46
2022/08/26 08:44:07;;;;;;;13.50;12.20;;;;;;;;;;5046352;28;24929;-46
2022/08/26 08:46:33;;;;;;;16.83;12.13;;;;;;;;;;5046230;28;24418;-46
2022/08/26 08:48:58;;;;;;;13.47;12.07;;;;;;;;;;5046050;28;24404;-47
2022/08/26 08:51:31;;;;;;;13.50;11.55;;;;;;;;;;5044652;28;24861;-46
2022/08/26 08:53:57;;;;;;;13.05;11.75;;;;;;;;;;5046256;28;24969;-46
2022/08/26 08:56:40;;;;;;;12.50;11.20;;;;;;;;;;5046346;28;24513;-47
2022/08/26 08:59:05;;;;;;;18.35;12.77;;;;;;;;;;5046007;28;24396;-47
2022/08/26 09:01:49;;;;;;;15.50;11.68;;;;;;;;;;5045130;28;24515;-47
2022/08/26 09:04:18;;;;;;;13.73;10.88;;;;;;;;;;5046587;28;24391;-47
2022/08/26 09:06:44;;;;;;;15.90;12.00;;;;;;;;;;5046296;28;24473;-47
2022/08/26 09:09:21;;;;;;;12.50;11.20;;;;;;;;;;5050219;28;24408;-47
2022/08/26 09:11:46;;;;;;;13.70;10.77;;;;;;;;;;5049218;28;24451;-47
2022/08/26 09:14:11;;;;;;;14.63;11.75;;;;;;;;;;5050126;28;25060;-47
2022/08/26 09:16:42;;;;;;;13.48;12.07;;;;;;;;;;5050324;28;24423;-47
2022/08/26 09:19:22;;;;;;;14.17;11.67;;;;;;;;;;5050084;28;24403;-48
2022/08/26 09:21:54;;;;;;;16.13;11.15;;;;;;;;;;5049042;28;24996;-48
2022/08/26 09:24:19;;;;;;;12.00;10.75;;;;;;;;;;5065233;28;24762;-48
2022/08/26 09:26:46;;;;;;;12.68;11.38;;;;;;;;;;5050065;28;24395;-45
2022/08/26 09:29:19;;;;;;;13.55;11.40;;;;;;;;;;5049910;28;24925;-45
2022/08/26 09:31:44;;;;;;;14.23;11.35;;;;;;;;;;5043380;28;25000;-46
2022/08/26 09:34:26;;;;;;;15.90;11.30;;;;;;;;;;5029092;28;24436;-45
2022/08/26 09:36:55;;;;;;;12.27;10.90;;;;;;;;;;5029211;28;24489;-46
2022/08/26 09:39:23;;;;;;;13.50;12.10;;;;;;;;;;5029867;28;24396;-46
2022/08/26 09:42:07;;;;;;;14.57;11.00;;;;;;;;;;5042040;28;24430;-47
2022/08/26 09:44:34;;;;;;;15.05;11.40;;;;;;;;;;5049880;28;24431;-47
2022/08/26 09:47:06;;;;;;;12.50;11.20;;;;;;;;;;5049089;28;24399;-47
2022/08/26 09:49:35;;;;;;;15.20;11.40;;;;;;;;;;5030571;28;24477;-47
2022/08/26 09:52:13;;;;;;;12.70;10.40;;;;;;;;;;5028967;28;24430;-47
2022/08/26 09:54:39;;;;;;;10.77;9.50;;;;;;;;;;5029677;28;24500;-47
2022/08/26 09:57:15;;;;;;;13.25;11.00;;;;;;;;;;5033703;28;24518;-47
2022/08/26 09:59:41;;;;;;;15.10;11.20;;;;;;;;;;5049139;28;25040;-48
2022/08/26 10:02:25;;;;;;;12.10;10.80;;;;;;;;;;5049190;28;24494;-47
2022/08/26 10:04:52;;;;;;;11.52;10.32;;;;;;;;;;5044121;28;24463;-47
2022/08/26 10:07:33;;;;;;;13.97;10.77;;;;;;;;;;5029299;28;24411;-47
2022/08/26 10:09:58;;;;;;;10.50;9.50;;;;;;;;;;5028997;28;24492;-47
2022/08/26 10:12:24;;;;;;;10.63;9.53;;;;;;;;;;5029079;28;24495;-47
2022/08/26 10:14:55;;;;;;;11.47;10.30;;;;;;;;;;5029653;28;24454;-47
2022/08/26 10:17:38;;;;;;;11.57;10.23;;;;;;;;;;5029528;28;24396;-47
2022/08/26 10:20:09;;;;;;;10.40;9.50;;;;;;;;;;5027992;28;24436;-48
2022/08/26 10:22:39;;;;;;;11.63;10.20;;;;;;;;;;5036315;28;24419;-47
2022/08/26 10:25:07;;;;;;;11.57;10.35;;;;;;;;;;5048984;28;24525;-47
2022/08/26 10:27:45;;;;;;;12.13;9.75;;;;;;;;;;5048889;28;24423;-48
2022/08/26 10:30:16;;;;;;;10.65;9.57;;;;;;;;;;5045334;28;24450;-48
2022/08/26 10:32:46;;;;;;;10.70;9.60;;;;;;;;;;5028462;28;24396;-47
2022/08/26 10:35:13;;;;;;;10.88;9.40;;;;;;;;;;5028504;28;25178;-47
2022/08/26 10:37:43;;;;;;;9.85;8.95;;;;;;;;;;5028600;28;24926;-47
2022/08/26 10:40:11;;;;;;;9.70;8.82;;;;;;;;;;5028543;28;24758;-46
2022/08/26 10:42:53;;;;;;;9.57;8.68;;;;;;;;;;5045970;28;24430;-46
2022/08/26 10:45:23;;;;;;;9.30;8.50;;;;;;;;;;5048121;28;24419;-46
2022/08/26 10:47:52;;;;;;;9.00;8.20;;;;;;;;;;5048148;28;24399;-47
2022/08/26 10:50:18;;;;;;;10.18;8.13;;;;;;;;;;5040686;28;24469;-46
2022/08/26 10:53:02;;;;;;;9.60;7.82;;;;;;;;;;5027972;28;24437;-46
2022/08/26 10:55:35;;;;;;;13.15;6.90;;;;;;;;;;5028205;28;24968;-46
2022/08/26 10:58:09;;;;;;;6.60;5.90;;;;;;;;;;5028282;28;24399;-47
2022/08/26 11:03:45;;;;;;;12.00;8.87;;;;;;;;;;5048231;28;24956;-46
2022/08/26 11:06:15;;;;;;;9.77;7.82;;;;;;;;;;5047766;28;24493;-47
2022/08/26 11:08:51;;;;;;;8.43;7.53;;;;;;;;;;5037840;28;24419;-47
2022/08/26 11:11:39;;;;;;;11.90;7.20;;;;;;;;;;5027834;28;25177;-47
2022/08/26 11:14:05;;;;;;;8.77;7.22;;;;;;;;;;5027540;28;24977;-47
2022/08/26 11:16:37;;;;;;;9.80;8.10;;;;;;;;;;5027693;28;24897;-47
2022/08/26 11:19:03;;;;;;;9.87;8.50;;;;;;;;;;5029086;28;24439;-48
2022/08/26 11:21:42;;;;;;;11.13;9.50;;;;;;;;;;5027991;28;24560;-48
2022/08/26 11:24:07;;;;;;;9.18;7.30;;;;;;;;;;5027181;28;24402;-47
2022/08/26 11:26:33;;;;;;;8.35;7.30;;;;;;;;;;5028054;28;24515;-47
2022/08/26 11:28:58;;;;;;;8.35;7.40;;;;;;;;;;5029072;28;24430;-46
2022/08/26 11:31:24;;;;;;;8.23;7.30;;;;;;;;;;5027714;28;24404;-48
2022/08/26 11:33:58;;;;;;;9.10;7.97;;;;;;;;;;5027238;28;24515;-47
2022/08/26 11:36:40;;;;;;;13.32;8.00;;;;;;;;;;5027494;28;24477;-46
2022/08/26 11:39:17;;;;;;;9.38;7.35;;;;;;;;;;5039068;28;24569;-46
2022/08/26 11:41:43;;;;;;;7.78;7.00;;;;;;;;;;5047458;28;24449;-46
2022/08/26 11:44:09;;;;;;;7.63;6.20;;;;;;;;;;5046668;28;25004;-47
2022/08/26 11:46:36;;;;;;;10.63;7.20;;;;;;;;;;5047355;28;24494;-47
2022/08/26 11:49:04;;;;;;;7.45;6.75;;;;;;;;;;5039749;28;24440;-47
2022/08/26 11:51:30;;;;;;;10.40;6.88;;;;;;;;;;5027127;28;24507;-48
2022/08/26 11:54:09;;;;;;;7.30;6.60;;;;;;;;;;5026972;28;24487;-47
2022/08/26 11:56:34;;;;;;;9.43;7.53;;;;;;;;;;5027260;28;24770;-47
2022/08/26 11:59:02;;;;;;;7.87;7.17;;;;;;;;;;5030832;28;24989;-47
2022/08/26 12:01:31;;;;;;;6.90;6.20;;;;;;;;;;5046230;28;24439;-46
2022/08/26 12:03:58;;;;;;;5.85;4.80;;;;;;;;;;5046727;28;24771;-45
2022/08/26 12:06:23;;;;;;;10.02;6.38;;;;;;;;;;5047060;28;24398;-46
2022/08/26 12:08:48;;;;;;;7.85;6.30;;;;;;;;;;5046790;28;24399;-46
2022/08/26 12:11:19;;;;;;;7.30;6.30;;;;;;;;;;5045912;28;24862;-45
2022/08/26 12:13:53;;;;;;;7.10;6.27;;;;;;;;;;5045844;28;24423;-47
2022/08/26 12:16:21;;;;;;;8.47;7.63;;;;;;;;;;5043622;28;24438;-46
2022/08/26 12:18:48;;;;;;;9.27;7.95;;;;;;;;;;5045875;28;24415;-46
2022/08/26 12:21:18;;;;;;;10.43;7.78;;;;;;;;;;5046551;28;24484;-47
2022/08/26 12:23:48;;;;;;;8.75;6.70;;;;;;;;;;5040188;28;24849;-47
2022/08/26 12:26:21;;;;;;;7.45;6.65;;;;;;;;;;5039152;28;24419;-47
2022/08/26 12:28:49;;;;;;;7.28;6.10;;;;;;;;;;5034374;28;24422;-46
2022/08/26 12:31:23;;;;;;;7.80;7.00;;;;;;;;;;5036972;28;24474;-47
2022/08/26 12:33:48;;;;;;;10.57;7.22;;;;;;;;;;5028243;28;25013;-48
2022/08/26 12:36:19;;;;;;;7.30;6.60;;;;;;;;;;5031773;28;24493;-48
2022/08/26 12:38:44;;;;;;;8.40;7.45;;;;;;;;;;5039218;28;24481;-48
2022/08/26 12:41:09;;;;;;;7.70;6.90;;;;;;;;;;5037933;28;24436;-48
2022/08/26 12:43:39;;;;;;;7.63;6.93;;;;;;;;;;5041537;28;24419;-48
2022/08/26 12:46:05;;;;;;;7.80;6.90;;;;;;;;;;5034448;28;24485;-47
2022/08/26 12:48:34;;;;;;;8.30;7.50;;;;;;;;;;5035408;28;24423;-48
2022/08/26 12:51:00;;;;;;;7.90;7.20;;;;;;;;;;5032121;28;24427;-48
2022/08/26 12:53:30;;;;;;;9.10;8.00;;;;;;;;;;5042552;28;24401;-48
2022/08/26 12:56:01;;;;;;;8.73;7.88;;;;;;;;;;5028758;28;24428;-48
2022/08/26 12:58:28;;;;;;;9.05;7.60;;;;;;;;;;5023692;28;24403;-47
2022/08/26 13:00:56;;;;;;;7.78;6.95;;;;;;;;;;5025290;28;24502;-49
2022/08/26 13:03:34;;;;;;;7.50;6.80;;;;;;;;;;5034257;28;24860;-48
2022/08/26 13:06:17;;;;;;;9.82;7.80;;;;;;;;;;5023852;28;24456;-48
2022/08/26 13:08:46;;;;;;;8.30;7.10;;;;;;;;;;5041914;28;25016;-47
2022/08/26 13:11:17;;;;;;;9.10;7.50;;;;;;;;;;5040340;28;24431;-47
2022/08/26 13:13:43;;;;;;;9.48;7.38;;;;;;;;;;5037516;28;24458;-45
2022/08/26 13:16:08;;;;;;;8.18;7.38;;;;;;;;;;5035972;28;24484;-46
2022/08/26 13:18:33;;;;;;;8.53;7.33;;;;;;;;;;5039029;28;24431;-46
2022/08/26 13:20:58;;;;;;;7.30;6.60;;;;;;;;;;5033797;28;24485;-47
2022/08/26 13:23:23;;;;;;;8.45;7.03;;;;;;;;;;5039583;28;24900;-47
2022/08/26 13:25:49;;;;;;;8.70;6.93;;;;;;;;;;5036381;28;25072;-47
2022/08/26 13:28:14;;;;;;;7.17;6.57;;;;;;;;;;5034783;28;24470;-46
2022/08/26 13:30:41;;;;;;;6.70;6.10;;;;;;;;;;5026742;28;25169;-46
2022/08/26 13:33:07;;;;;;;7.60;6.80;;;;;;;;;;5028377;28;24435;-47
2022/08/26 13:35:32;;;;;;;6.97;6.40;;;;;;;;;;5032528;28;24426;-47
2022/08/26 13:37:57;;;;;;;7.00;6.30;;;;;;;;;;5033356;28;24426;-47
2022/08/26 13:40:24;;;;;;;6.87;6.27;;;;;;;;;;5029537;28;24427;-47
2022/08/26 13:42:49;;;;;;;8.60;6.90;;;;;;;;;;5028174;28;24465;-48
2022/08/26 13:45:14;;;;;;;7.93;6.40;;;;;;;;;;5040238;28;24454;-47
2022/08/26 13:47:40;;;;;;;8.00;6.75;;;;;;;;;;5038882;28;25351;-47
2022/08/26 13:50:05;;;;;;;7.27;6.60;;;;;;;;;;5026143;28;24877;-47
2022/08/26 13:52:30;;;;;;;7.00;6.40;;;;;;;;;;5032730;28;24435;-47
2022/08/26 13:54:55;;;;;;;7.73;7.03;;;;;;;;;;5032702;28;24802;-48
2022/08/26 13:57:23;;;;;;;7.33;6.63;;;;;;;;;;5044548;28;25094;-47
2022/08/26 13:59:48;;;;;;;7.60;6.90;;;;;;;;;;5034995;28;25006;-48
2022/08/26 14:02:13;;;;;;;7.50;6.80;;;;;;;;;;5034329;28;24427;-48
2022/08/26 14:04:39;;;;;;;7.37;6.67;;;;;;;;;;5023753;28;24465;-47
2022/08/26 14:07:04;;;;;;;7.20;6.50;;;;;;;;;;5032641;28;25016;-47
2022/08/26 14:09:29;;;;;;;7.00;6.40;;;;;;;;;;5046984;28;24971;-47
2022/08/26 14:11:54;;;;;;;7.80;7.00;;;;;;;;;;5048244;28;24485;-47
2022/08/26 14:14:19;;;;;;;7.50;6.80;;;;;;;;;;5030507;28;25250;-47
2022/08/26 14:16:44;;;;;;;7.50;6.90;;;;;;;;;;5030338;28;24978;-47
2022/08/26 14:19:10;;;;;;;7.40;6.70;;;;;;;;;;5047958;28;24454;-48
2022/08/26 14:21:37;;;;;;;7.40;6.70;;;;;;;;;;5031519;28;25015;-47
2022/08/26 14:24:03;;;;;;;9.80;7.53;;;;;;;;;;5036566;28;24427;-47
2022/08/26 14:26:28;;;;;;;10.63;7.40;;;;;;;;;;5034125;28;24426;-46
2022/08/26 14:28:54;;;;;;;11.87;7.40;;;;;;;;;;5033343;28;24830;-47
2022/08/26 14:31:19;;;;;;;9.80;6.50;;;;;;;;;;5032973;28;25009;-46
2022/08/26 14:33:44;;;;;;;10.63;7.00;;;;;;;;;;5025902;28;24521;-47